sensor_id;sensor_type;location;lat;lon;timestamp;P1;durP1;ratioP1;P2;durP2;ratioP2
24483;SDS011;12643;51.620;7.548;2023-02-01T00:01:25;32.22;;;12.75;;
24483;SDS011;12643;51.620;7.548;2023-02-01T00:03:54;29.38;;;13.05;;
24483;SDS011;12643;51.620;7.548;2023-02-01T00:06:22;47.03;;;14.60;;
24483;SDS011;12643;51.620;7.548;2023-02-01T00:08:52;42.58;;;13.35;;
24483;SDS011;12643;51.620;7.548;2023-02-01T00:11:22;35.90;;;14.30;;
24483;SDS011;12643;51.620;7.548;2023-02-01T00:13:51;35.23;;;13.27;;
24483;SDS011;12643;51.620;7.548;2023-02-01T00:16:21;39.20;;;14.18;;
24483;SDS011;12643;51.620;7.548;2023-02-01T00:18:51;36.10;;;15.52;;
24483;SDS011;12643;51.620;7.548;2023-02-01T00:21:23;35.05;;;13.82;;
24483;SDS011;12643;51.620;7.548;2023-02-01T00:23:51;30.77;;;13.13;;
24483;SDS011;12643;51.620;7.548;2023-02-01T00:26:23;32.00;;;12.43;;
24483;SDS011;12643;51.620;7.548;2023-02-01T00:28:56;51.47;;;14.63;;
24483;SDS011;12643;51.620;7.548;2023-02-01T00:31:26;38.55;;;13.25;;
24483;SDS011;12643;51.620;7.548;2023-02-01T00:33:55;33.45;;;14.18;;
24483;SDS011;12643;51.620;7.548;2023-02-01T00:36:23;33.60;;;13.80;;
24483;SDS011;12643;51.620;7.548;2023-02-01T00:38:51;36.05;;;13.70;;
24483;SDS011;12643;51.620;7.548;2023-02-01T00:41:19;32.97;;;12.80;;
24483;SDS011;12643;51.620;7.548;2023-02-01T00:43:48;33.00;;;11.57;;
24483;SDS011;12643;51.620;7.548;2023-02-01T00:46:18;33.58;;;11.38;;
24483;SDS011;12643;51.620;7.548;2023-02-01T00:48:48;36.75;;;11.98;;
24483;SDS011;12643;51.620;7.548;2023-02-01T00:51:19;33.92;;;11.93;;
24483;SDS011;12643;51.620;7.548;2023-02-01T00:53:48;26.73;;;10.27;;
24483;SDS011;12643;51.620;7.548;2023-02-01T00:56:16;41.90;;;10.13;;
24483;SDS011;12643;51.620;7.548;2023-02-01T00:58:44;28.35;;;9.65;;
24483;SDS011;12643;51.620;7.548;2023-02-01T01:01:16;36.95;;;10.25;;
24483;SDS011;12643;51.620;7.548;2023-02-01T01:03:49;27.48;;;8.73;;
24483;SDS011;12643;51.620;7.548;2023-02-01T01:06:20;29.08;;;8.73;;
24483;SDS011;12643;51.620;7.548;2023-02-01T01:08:50;31.67;;;9.52;;
24483;SDS011;12643;51.620;7.548;2023-02-01T01:11:20;26.88;;;7.25;;
24483;SDS011;12643;51.620;7.548;2023-02-01T01:13:52;20.92;;;6.97;;
24483;SDS011;12643;51.620;7.548;2023-02-01T01:16:21;29.10;;;7.82;;
24483;SDS011;12643;51.620;7.548;2023-02-01T01:18:52;25.15;;;7.13;;
24483;SDS011;12643;51.620;7.548;2023-02-01T01:21:22;24.88;;;6.32;;
24483;SDS011;12643;51.620;7.548;2023-02-01T01:23:50;24.48;;;6.28;;
24483;SDS011;12643;51.620;7.548;2023-02-01T01:26:19;22.63;;;6.57;;
24483;SDS011;12643;51.620;7.548;2023-02-01T01:28:49;18.85;;;5.90;;
24483;SDS011;12643;51.620;7.548;2023-02-01T01:31:18;25.40;;;6.57;;
24483;SDS011;12643;51.620;7.548;2023-02-01T01:33:47;20.40;;;5.32;;
24483;SDS011;12643;51.620;7.548;2023-02-01T01:36:18;29.48;;;4.65;;
24483;SDS011;12643;51.620;7.548;2023-02-01T01:38:46;22.10;;;5.70;;
24483;SDS011;12643;51.620;7.548;2023-02-01T01:41:15;16.63;;;3.97;;
24483;SDS011;12643;51.620;7.548;2023-02-01T01:43:52;19.67;;;4.70;;
24483;SDS011;12643;51.620;7.548;2023-02-01T01:46:22;21.25;;;4.43;;
24483;SDS011;12643;51.620;7.548;2023-02-01T01:48:54;23.30;;;4.53;;
24483;SDS011;12643;51.620;7.548;2023-02-01T01:51:29;23.90;;;4.03;;
24483;SDS011;12643;51.620;7.548;2023-02-01T01:54:01;26.52;;;4.15;;
24483;SDS011;12643;51.620;7.548;2023-02-01T01:56:32;22.10;;;4.60;;
24483;SDS011;12643;51.620;7.548;2023-02-01T01:59:02;20.60;;;4.47;;
24483;SDS011;12643;51.620;7.548;2023-02-01T02:01:32;24.02;;;5.72;;
24483;SDS011;12643;51.620;7.548;2023-02-01T02:04:01;16.20;;;5.18;;
24483;SDS011;12643;51.620;7.548;2023-02-01T02:06:36;16.35;;;4.50;;
24483;SDS011;12643;51.620;7.548;2023-02-01T02:09:10;26.63;;;5.55;;
24483;SDS011;12643;51.620;7.548;2023-02-01T02:11:39;27.52;;;5.97;;
24483;SDS011;12643;51.620;7.548;2023-02-01T02:14:08;20.75;;;5.20;;
24483;SDS011;12643;51.620;7.548;2023-02-01T02:16:47;31.70;;;5.50;;
24483;SDS011;12643;51.620;7.548;2023-02-01T02:28:44;29.13;;;5.13;;
24483;SDS011;12643;51.620;7.548;2023-02-01T02:31:35;26.48;;;4.65;;
24483;SDS011;12643;51.620;7.548;2023-02-01T02:34:19;20.13;;;4.35;;
24483;SDS011;12643;51.620;7.548;2023-02-01T02:36:54;29.08;;;5.57;;
24483;SDS011;12643;51.620;7.548;2023-02-01T02:39:31;24.60;;;5.03;;
24483;SDS011;12643;51.620;7.548;2023-02-01T02:42:10;23.67;;;5.35;;
24483;SDS011;12643;51.620;7.548;2023-02-01T02:45:02;18.88;;;4.40;;
24483;SDS011;12643;51.620;7.548;2023-02-01T02:48:00;23.75;;;4.70;;
24483;SDS011;12643;51.620;7.548;2023-02-01T02:50:37;22.63;;;4.38;;
24483;SDS011;12643;51.620;7.548;2023-02-01T02:53:28;24.20;;;5.68;;
24483;SDS011;12643;51.620;7.548;2023-02-01T02:56:17;18.42;;;6.07;;
24483;SDS011;12643;51.620;7.548;2023-02-01T02:59:04;26.05;;;5.60;;
24483;SDS011;12643;51.620;7.548;2023-02-01T03:01:52;19.45;;;4.75;;
24483;SDS011;12643;51.620;7.548;2023-02-01T03:04:37;24.73;;;4.70;;
24483;SDS011;12643;51.620;7.548;2023-02-01T03:07:13;21.35;;;5.78;;
24483;SDS011;12643;51.620;7.548;2023-02-01T03:10:03;22.88;;;5.00;;
24483;SDS011;12643;51.620;7.548;2023-02-01T03:12:37;18.60;;;5.07;;
24483;SDS011;12643;51.620;7.548;2023-02-01T03:15:22;17.27;;;4.55;;
24483;SDS011;12643;51.620;7.548;2023-02-01T03:17:57;22.60;;;4.38;;
24483;SDS011;12643;51.620;7.548;2023-02-01T03:23:00;24.57;;;5.77;;
24483;SDS011;12643;51.620;7.548;2023-02-01T03:25:32;28.33;;;6.13;;
24483;SDS011;12643;51.620;7.548;2023-02-01T03:28:02;32.75;;;6.90;;
24483;SDS011;12643;51.620;7.548;2023-02-01T03:30:34;20.58;;;5.65;;
24483;SDS011;12643;51.620;7.548;2023-02-01T03:33:08;25.95;;;5.15;;
24483;SDS011;12643;51.620;7.548;2023-02-01T03:35:48;25.98;;;5.15;;
24483;SDS011;12643;51.620;7.548;2023-02-01T03:38:24;16.85;;;5.45;;
24483;SDS011;12643;51.620;7.548;2023-02-01T03:40:57;25.23;;;5.15;;
24483;SDS011;12643;51.620;7.548;2023-02-01T03:43:33;25.58;;;5.10;;
24483;SDS011;12643;51.620;7.548;2023-02-01T03:46:05;22.40;;;5.55;;
24483;SDS011;12643;51.620;7.548;2023-02-01T03:48:36;21.13;;;4.93;;
24483;SDS011;12643;51.620;7.548;2023-02-01T03:51:06;24.40;;;5.25;;
24483;SDS011;12643;51.620;7.548;2023-02-01T03:53:37;29.83;;;5.40;;
24483;SDS011;12643;51.620;7.548;2023-02-01T03:56:06;22.35;;;4.32;;
24483;SDS011;12643;51.620;7.548;2023-02-01T03:58:37;22.10;;;4.75;;
24483;SDS011;12643;51.620;7.548;2023-02-01T04:01:05;23.40;;;5.75;;
24483;SDS011;12643;51.620;7.548;2023-02-01T04:03:33;20.92;;;4.47;;
24483;SDS011;12643;51.620;7.548;2023-02-01T04:06:01;18.25;;;4.28;;
24483;SDS011;12643;51.620;7.548;2023-02-01T04:08:29;20.48;;;4.47;;
24483;SDS011;12643;51.620;7.548;2023-02-01T04:10:59;28.77;;;5.93;;
24483;SDS011;12643;51.620;7.548;2023-02-01T04:13:27;25.63;;;5.18;;
24483;SDS011;12643;51.620;7.548;2023-02-01T04:15:55;28.38;;;5.00;;
24483;SDS011;12643;51.620;7.548;2023-02-01T04:18:23;23.10;;;4.82;;
24483;SDS011;12643;51.620;7.548;2023-02-01T04:20:51;20.13;;;4.88;;
24483;SDS011;12643;51.620;7.548;2023-02-01T04:23:19;19.90;;;5.13;;
24483;SDS011;12643;51.620;7.548;2023-02-01T04:25:47;22.50;;;4.85;;
24483;SDS011;12643;51.620;7.548;2023-02-01T04:28:16;27.15;;;4.68;;
24483;SDS011;12643;51.620;7.548;2023-02-01T04:30:45;27.20;;;4.43;;
24483;SDS011;12643;51.620;7.548;2023-02-01T04:33:14;20.85;;;4.85;;
24483;SDS011;12643;51.620;7.548;2023-02-01T04:35:43;25.75;;;4.82;;
24483;SDS011;12643;51.620;7.548;2023-02-01T04:38:11;25.83;;;4.97;;
24483;SDS011;12643;51.620;7.548;2023-02-01T04:40:39;36.85;;;5.32;;
24483;SDS011;12643;51.620;7.548;2023-02-01T04:43:07;31.13;;;5.32;;
24483;SDS011;12643;51.620;7.548;2023-02-01T04:45:36;32.08;;;5.63;;
24483;SDS011;12643;51.620;7.548;2023-02-01T04:48:05;29.38;;;5.78;;
24483;SDS011;12643;51.620;7.548;2023-02-01T04:50:33;35.30;;;5.72;;
24483;SDS011;12643;51.620;7.548;2023-02-01T04:53:01;25.83;;;6.10;;
24483;SDS011;12643;51.620;7.548;2023-02-01T04:55:30;25.00;;;5.05;;
24483;SDS011;12643;51.620;7.548;2023-02-01T04:57:58;22.98;;;5.03;;
24483;SDS011;12643;51.620;7.548;2023-02-01T05:00:26;19.10;;;4.82;;
24483;SDS011;12643;51.620;7.548;2023-02-01T05:03:00;30.33;;;4.63;;
24483;SDS011;12643;51.620;7.548;2023-02-01T05:05:29;30.58;;;6.30;;
24483;SDS011;12643;51.620;7.548;2023-02-01T05:07:57;19.88;;;3.95;;
24483;SDS011;12643;51.620;7.548;2023-02-01T05:10:25;30.13;;;4.82;;
24483;SDS011;12643;51.620;7.548;2023-02-01T05:12:54;23.58;;;5.28;;
24483;SDS011;12643;51.620;7.548;2023-02-01T05:15:50;29.90;;;6.05;;
24483;SDS011;12643;51.620;7.548;2023-02-01T05:18:20;21.33;;;4.80;;
24483;SDS011;12643;51.620;7.548;2023-02-01T05:20:48;22.55;;;4.60;;
24483;SDS011;12643;51.620;7.548;2023-02-01T05:23:16;26.45;;;5.60;;
24483;SDS011;12643;51.620;7.548;2023-02-01T05:25:44;25.67;;;6.15;;
24483;SDS011;12643;51.620;7.548;2023-02-01T05:28:12;24.30;;;5.07;;
24483;SDS011;12643;51.620;7.548;2023-02-01T05:30:41;34.83;;;5.80;;
24483;SDS011;12643;51.620;7.548;2023-02-01T05:33:09;30.30;;;5.03;;
24483;SDS011;12643;51.620;7.548;2023-02-01T05:35:38;21.85;;;4.60;;
24483;SDS011;12643;51.620;7.548;2023-02-01T05:38:06;25.55;;;4.47;;
24483;SDS011;12643;51.620;7.548;2023-02-01T05:40:34;27.77;;;4.78;;
24483;SDS011;12643;51.620;7.548;2023-02-01T05:43:02;33.58;;;6.10;;
24483;SDS011;12643;51.620;7.548;2023-02-01T05:45:30;21.08;;;5.03;;
24483;SDS011;12643;51.620;7.548;2023-02-01T05:47:58;19.80;;;4.88;;
24483;SDS011;12643;51.620;7.548;2023-02-01T05:50:26;27.92;;;5.10;;
24483;SDS011;12643;51.620;7.548;2023-02-01T05:52:56;24.85;;;4.30;;
24483;SDS011;12643;51.620;7.548;2023-02-01T05:55:24;28.58;;;5.72;;
24483;SDS011;12643;51.620;7.548;2023-02-01T05:57:51;22.92;;;4.10;;
24483;SDS011;12643;51.620;7.548;2023-02-01T06:00:20;25.92;;;5.03;;
24483;SDS011;12643;51.620;7.548;2023-02-01T06:02:50;25.35;;;5.57;;
24483;SDS011;12643;51.620;7.548;2023-02-01T06:05:18;24.67;;;4.80;;
24483;SDS011;12643;51.620;7.548;2023-02-01T06:07:46;25.55;;;6.32;;
24483;SDS011;12643;51.620;7.548;2023-02-01T06:10:17;24.55;;;4.53;;
24483;SDS011;12643;51.620;7.548;2023-02-01T06:12:45;26.42;;;5.22;;
24483;SDS011;12643;51.620;7.548;2023-02-01T06:15:14;27.02;;;5.22;;
24483;SDS011;12643;51.620;7.548;2023-02-01T06:17:43;25.13;;;5.70;;
24483;SDS011;12643;51.620;7.548;2023-02-01T06:20:16;26.30;;;5.45;;
24483;SDS011;12643;51.620;7.548;2023-02-01T06:25:12;41.15;;;5.38;;
24483;SDS011;12643;51.620;7.548;2023-02-01T06:27:42;24.13;;;4.63;;
24483;SDS011;12643;51.620;7.548;2023-02-01T06:30:11;24.40;;;5.60;;
24483;SDS011;12643;51.620;7.548;2023-02-01T06:32:40;27.90;;;4.65;;
24483;SDS011;12643;51.620;7.548;2023-02-01T06:35:08;36.75;;;5.82;;
24483;SDS011;12643;51.620;7.548;2023-02-01T06:37:41;26.75;;;4.78;;
24483;SDS011;12643;51.620;7.548;2023-02-01T06:40:10;31.45;;;5.65;;
24483;SDS011;12643;51.620;7.548;2023-02-01T06:42:39;24.25;;;5.38;;
24483;SDS011;12643;51.620;7.548;2023-02-01T06:45:09;25.40;;;4.43;;
24483;SDS011;12643;51.620;7.548;2023-02-01T06:47:37;19.05;;;5.13;;
24483;SDS011;12643;51.620;7.548;2023-02-01T06:50:05;22.90;;;4.97;;
24483;SDS011;12643;51.620;7.548;2023-02-01T06:52:35;23.75;;;5.22;;
24483;SDS011;12643;51.620;7.548;2023-02-01T06:55:03;30.23;;;5.32;;
24483;SDS011;12643;51.620;7.548;2023-02-01T06:57:32;37.75;;;5.97;;
24483;SDS011;12643;51.620;7.548;2023-02-01T07:00:01;29.70;;;6.55;;
24483;SDS011;12643;51.620;7.548;2023-02-01T07:02:31;31.08;;;6.25;;
24483;SDS011;12643;51.620;7.548;2023-02-01T07:04:59;24.02;;;5.43;;
24483;SDS011;12643;51.620;7.548;2023-02-01T07:07:28;27.60;;;5.80;;
24483;SDS011;12643;51.620;7.548;2023-02-01T07:09:56;21.50;;;5.53;;
24483;SDS011;12643;51.620;7.548;2023-02-01T07:12:24;23.33;;;6.47;;
24483;SDS011;12643;51.620;7.548;2023-02-01T07:14:52;23.50;;;6.07;;
24483;SDS011;12643;51.620;7.548;2023-02-01T07:17:23;35.13;;;5.78;;
24483;SDS011;12643;51.620;7.548;2023-02-01T07:19:53;28.63;;;6.87;;
24483;SDS011;12643;51.620;7.548;2023-02-01T07:22:22;26.02;;;6.35;;
24483;SDS011;12643;51.620;7.548;2023-02-01T07:24:50;34.25;;;5.45;;
24483;SDS011;12643;51.620;7.548;2023-02-01T07:27:18;27.02;;;5.68;;
24483;SDS011;12643;51.620;7.548;2023-02-01T07:29:51;35.20;;;5.75;;
24483;SDS011;12643;51.620;7.548;2023-02-01T07:32:21;30.48;;;5.68;;
24483;SDS011;12643;51.620;7.548;2023-02-01T07:34:49;18.67;;;4.78;;
24483;SDS011;12643;51.620;7.548;2023-02-01T07:37:19;29.25;;;5.72;;
24483;SDS011;12643;51.620;7.548;2023-02-01T07:39:47;28.48;;;5.60;;
24483;SDS011;12643;51.620;7.548;2023-02-01T07:42:15;33.33;;;6.72;;
24483;SDS011;12643;51.620;7.548;2023-02-01T07:44:46;22.23;;;4.85;;
24483;SDS011;12643;51.620;7.548;2023-02-01T07:47:14;31.92;;;5.22;;
24483;SDS011;12643;51.620;7.548;2023-02-01T07:49:42;34.50;;;7.65;;
24483;SDS011;12643;51.620;7.548;2023-02-01T07:52:11;26.08;;;5.30;;
24483;SDS011;12643;51.620;7.548;2023-02-01T07:54:43;24.40;;;4.80;;
24483;SDS011;12643;51.620;7.548;2023-02-01T07:57:11;23.38;;;5.30;;
24483;SDS011;12643;51.620;7.548;2023-02-01T07:59:39;28.85;;;5.88;;
24483;SDS011;12643;51.620;7.548;2023-02-01T08:02:28;25.83;;;5.60;;
24483;SDS011;12643;51.620;7.548;2023-02-01T08:04:54;34.90;;;6.03;;
24483;SDS011;12643;51.620;7.548;2023-02-01T08:07:24;22.25;;;5.05;;
24483;SDS011;12643;51.620;7.548;2023-02-01T08:09:54;24.02;;;5.53;;
24483;SDS011;12643;51.620;7.548;2023-02-01T08:12:22;23.50;;;5.22;;
24483;SDS011;12643;51.620;7.548;2023-02-01T08:14:50;41.17;;;7.60;;
24483;SDS011;12643;51.620;7.548;2023-02-01T08:17:18;29.00;;;5.60;;
24483;SDS011;12643;51.620;7.548;2023-02-01T08:19:47;30.20;;;6.88;;
24483;SDS011;12643;51.620;7.548;2023-02-01T08:22:15;36.20;;;6.55;;
24483;SDS011;12643;51.620;7.548;2023-02-01T08:24:43;27.83;;;5.55;;
24483;SDS011;12643;51.620;7.548;2023-02-01T08:27:12;24.00;;;6.18;;
24483;SDS011;12643;51.620;7.548;2023-02-01T08:29:40;27.83;;;6.30;;
24483;SDS011;12643;51.620;7.548;2023-02-01T08:32:08;33.47;;;7.07;;
24483;SDS011;12643;51.620;7.548;2023-02-01T08:34:36;31.83;;;5.93;;
24483;SDS011;12643;51.620;7.548;2023-02-01T08:37:04;31.75;;;5.85;;
24483;SDS011;12643;51.620;7.548;2023-02-01T08:39:32;29.15;;;6.43;;
24483;SDS011;12643;51.620;7.548;2023-02-01T08:42:01;27.98;;;6.47;;
24483;SDS011;12643;51.620;7.548;2023-02-01T08:44:49;20.90;;;5.43;;
24483;SDS011;12643;51.620;7.548;2023-02-01T08:47:17;25.02;;;6.45;;
24483;SDS011;12643;51.620;7.548;2023-02-01T08:49:46;22.05;;;5.60;;
24483;SDS011;12643;51.620;7.548;2023-02-01T08:52:14;41.75;;;6.63;;
24483;SDS011;12643;51.620;7.548;2023-02-01T08:54:42;35.47;;;6.95;;
24483;SDS011;12643;51.620;7.548;2023-02-01T08:57:10;31.25;;;6.93;;
24483;SDS011;12643;51.620;7.548;2023-02-01T08:59:38;26.23;;;5.78;;
24483;SDS011;12643;51.620;7.548;2023-02-01T09:02:09;29.65;;;5.13;;
24483;SDS011;12643;51.620;7.548;2023-02-01T09:04:41;27.38;;;6.30;;
24483;SDS011;12643;51.620;7.548;2023-02-01T09:07:10;30.38;;;5.75;;
24483;SDS011;12643;51.620;7.548;2023-02-01T09:09:39;26.77;;;5.78;;
24483;SDS011;12643;51.620;7.548;2023-02-01T09:12:08;22.15;;;5.38;;
24483;SDS011;12643;51.620;7.548;2023-02-01T09:14:36;35.33;;;7.90;;
24483;SDS011;12643;51.620;7.548;2023-02-01T09:17:04;30.52;;;6.15;;
24483;SDS011;12643;51.620;7.548;2023-02-01T09:19:34;33.67;;;6.05;;
24483;SDS011;12643;51.620;7.548;2023-02-01T09:22:02;27.90;;;5.80;;
24483;SDS011;12643;51.620;7.548;2023-02-01T09:24:30;24.50;;;6.88;;
24483;SDS011;12643;51.620;7.548;2023-02-01T09:26:58;33.50;;;6.55;;
24483;SDS011;12643;51.620;7.548;2023-02-01T09:29:26;27.13;;;6.85;;
24483;SDS011;12643;51.620;7.548;2023-02-01T09:31:54;27.13;;;6.75;;
24483;SDS011;12643;51.620;7.548;2023-02-01T09:34:22;26.15;;;6.63;;
24483;SDS011;12643;51.620;7.548;2023-02-01T09:36:52;29.75;;;6.80;;
24483;SDS011;12643;51.620;7.548;2023-02-01T09:39:20;25.42;;;6.82;;
24483;SDS011;12643;51.620;7.548;2023-02-01T09:41:51;25.70;;;6.50;;
24483;SDS011;12643;51.620;7.548;2023-02-01T09:47:22;34.47;;;5.88;;
24483;SDS011;12643;51.620;7.548;2023-02-01T09:49:55;38.00;;;7.35;;
24483;SDS011;12643;51.620;7.548;2023-02-01T09:52:29;33.88;;;7.05;;
24483;SDS011;12643;51.620;7.548;2023-02-01T09:55:03;36.08;;;6.50;;
24483;SDS011;12643;51.620;7.548;2023-02-01T09:57:40;25.45;;;5.93;;
24483;SDS011;12643;51.620;7.548;2023-02-01T10:00:14;27.17;;;6.35;;
24483;SDS011;12643;51.620;7.548;2023-02-01T10:02:47;21.67;;;5.45;;
24483;SDS011;12643;51.620;7.548;2023-02-01T10:05:16;20.23;;;5.78;;
24483;SDS011;12643;51.620;7.548;2023-02-01T10:07:49;26.15;;;6.45;;
24483;SDS011;12643;51.620;7.548;2023-02-01T10:10:27;24.70;;;7.05;;
24483;SDS011;12643;51.620;7.548;2023-02-01T10:13:13;26.52;;;7.53;;
24483;SDS011;12643;51.620;7.548;2023-02-01T10:16:00;33.38;;;6.68;;
24483;SDS011;12643;51.620;7.548;2023-02-01T10:18:56;29.23;;;6.95;;
24483;SDS011;12643;51.620;7.548;2023-02-01T10:21:42;33.60;;;6.85;;
24483;SDS011;12643;51.620;7.548;2023-02-01T10:27:32;28.83;;;7.47;;
24483;SDS011;12643;51.620;7.548;2023-02-01T10:30:09;37.30;;;7.63;;
24483;SDS011;12643;51.620;7.548;2023-02-01T10:32:45;24.50;;;7.03;;
24483;SDS011;12643;51.620;7.548;2023-02-01T10:35:15;22.85;;;6.70;;
24483;SDS011;12643;51.620;7.548;2023-02-01T10:37:48;33.35;;;7.70;;
24483;SDS011;12643;51.620;7.548;2023-02-01T10:40:18;25.20;;;7.00;;
24483;SDS011;12643;51.620;7.548;2023-02-01T10:42:49;24.60;;;6.45;;
24483;SDS011;12643;51.620;7.548;2023-02-01T10:45:18;25.83;;;7.22;;
24483;SDS011;12643;51.620;7.548;2023-02-01T10:47:52;36.58;;;7.70;;
24483;SDS011;12643;51.620;7.548;2023-02-01T10:50:25;30.75;;;7.82;;
24483;SDS011;12643;51.620;7.548;2023-02-01T10:53:02;20.10;;;6.65;;
24483;SDS011;12643;51.620;7.548;2023-02-01T10:55:36;33.35;;;6.68;;
24483;SDS011;12643;51.620;7.548;2023-02-01T10:58:06;28.90;;;6.90;;
24483;SDS011;12643;51.620;7.548;2023-02-01T11:00:46;23.45;;;7.25;;
24483;SDS011;12643;51.620;7.548;2023-02-01T11:03:20;29.98;;;8.10;;
24483;SDS011;12643;51.620;7.548;2023-02-01T11:05:57;29.02;;;7.20;;
24483;SDS011;12643;51.620;7.548;2023-02-01T11:08:26;33.95;;;7.05;;
24483;SDS011;12643;51.620;7.548;2023-02-01T11:10:59;24.35;;;7.90;;
24483;SDS011;12643;51.620;7.548;2023-02-01T11:13:31;42.90;;;9.15;;
24483;SDS011;12643;51.620;7.548;2023-02-01T11:16:04;30.42;;;8.80;;
24483;SDS011;12643;51.620;7.548;2023-02-01T11:18:35;26.98;;;7.82;;
24483;SDS011;12643;51.620;7.548;2023-02-01T11:21:05;38.08;;;9.45;;
24483;SDS011;12643;51.620;7.548;2023-02-01T11:23:39;22.42;;;7.72;;
24483;SDS011;12643;51.620;7.548;2023-02-01T11:26:12;32.08;;;6.65;;
24483;SDS011;12643;51.620;7.548;2023-02-01T11:28:45;24.15;;;7.22;;
24483;SDS011;12643;51.620;7.548;2023-02-01T11:31:20;19.00;;;7.22;;
24483;SDS011;12643;51.620;7.548;2023-02-01T11:33:58;22.40;;;5.85;;
24483;SDS011;12643;51.620;7.548;2023-02-01T11:36:33;30.50;;;6.97;;
24483;SDS011;12643;51.620;7.548;2023-02-01T11:39:08;32.97;;;7.68;;
24483;SDS011;12643;51.620;7.548;2023-02-01T11:41:44;25.90;;;7.10;;
24483;SDS011;12643;51.620;7.548;2023-02-01T11:44:26;20.48;;;5.95;;
24483;SDS011;12643;51.620;7.548;2023-02-01T11:47:18;33.17;;;6.75;;
24483;SDS011;12643;51.620;7.548;2023-02-01T11:49:52;23.75;;;7.18;;
24483;SDS011;12643;51.620;7.548;2023-02-01T11:52:26;27.30;;;6.40;;
24483;SDS011;12643;51.620;7.548;2023-02-01T11:55:13;31.10;;;5.88;;
24483;SDS011;12643;51.620;7.548;2023-02-01T11:58:01;30.77;;;7.72;;
24483;SDS011;12643;51.620;7.548;2023-02-01T12:00:44;30.75;;;10.73;;
24483;SDS011;12643;51.620;7.548;2023-02-01T12:06:36;30.80;;;8.73;;
24483;SDS011;12643;51.620;7.548;2023-02-01T12:09:29;24.10;;;8.13;;
24483;SDS011;12643;51.620;7.548;2023-02-01T12:12:16;28.08;;;7.50;;
24483;SDS011;12643;51.620;7.548;2023-02-01T12:14:55;30.08;;;8.10;;
24483;SDS011;12643;51.620;7.548;2023-02-01T12:17:36;32.15;;;8.10;;
24483;SDS011;12643;51.620;7.548;2023-02-01T12:20:42;25.23;;;8.45;;
24483;SDS011;12643;51.620;7.548;2023-02-01T12:23:26;22.13;;;7.50;;
24483;SDS011;12643;51.620;7.548;2023-02-01T12:26:12;26.10;;;8.27;;
24483;SDS011;12643;51.620;7.548;2023-02-01T12:32:07;28.27;;;9.10;;
24483;SDS011;12643;51.620;7.548;2023-02-01T12:35:02;36.78;;;7.32;;
24483;SDS011;12643;51.620;7.548;2023-02-01T12:38:01;20.65;;;6.53;;
24483;SDS011;12643;51.620;7.548;2023-02-01T12:40:45;20.73;;;6.47;;
24483;SDS011;12643;51.620;7.548;2023-02-01T12:43:38;25.25;;;6.20;;
24483;SDS011;12643;51.620;7.548;2023-02-01T12:46:13;29.35;;;6.20;;
24483;SDS011;12643;51.620;7.548;2023-02-01T12:51:19;19.85;;;6.03;;
24483;SDS011;12643;51.620;7.548;2023-02-01T12:53:52;22.33;;;8.05;;
24483;SDS011;12643;51.620;7.548;2023-02-01T12:56:26;25.48;;;6.32;;
24483;SDS011;12643;51.620;7.548;2023-02-01T12:59:02;26.52;;;6.93;;
24483;SDS011;12643;51.620;7.548;2023-02-01T13:01:34;28.55;;;6.25;;
24483;SDS011;12643;51.620;7.548;2023-02-01T13:04:08;38.58;;;6.95;;
24483;SDS011;12643;51.620;7.548;2023-02-01T13:06:46;42.50;;;7.18;;
24483;SDS011;12643;51.620;7.548;2023-02-01T13:09:21;32.80;;;6.20;;
24483;SDS011;12643;51.620;7.548;2023-02-01T13:11:54;28.65;;;6.28;;
24483;SDS011;12643;51.620;7.548;2023-02-01T13:14:28;27.63;;;6.75;;
24483;SDS011;12643;51.620;7.548;2023-02-01T13:17:00;22.33;;;5.32;;
24483;SDS011;12643;51.620;7.548;2023-02-01T13:19:40;24.77;;;5.88;;
24483;SDS011;12643;51.620;7.548;2023-02-01T13:22:23;36.38;;;6.43;;
24483;SDS011;12643;51.620;7.548;2023-02-01T13:24:56;30.40;;;6.68;;
24483;SDS011;12643;51.620;7.548;2023-02-01T13:27:28;23.55;;;5.22;;
24483;SDS011;12643;51.620;7.548;2023-02-01T13:29:58;30.95;;;5.30;;
24483;SDS011;12643;51.620;7.548;2023-02-01T13:32:51;19.00;;;5.60;;
24483;SDS011;12643;51.620;7.548;2023-02-01T13:35:56;21.92;;;4.85;;
24483;SDS011;12643;51.620;7.548;2023-02-01T13:38:39;19.30;;;4.75;;
24483;SDS011;12643;51.620;7.548;2023-02-01T13:41:27;20.23;;;4.50;;
24483;SDS011;12643;51.620;7.548;2023-02-01T13:43:58;19.65;;;4.70;;
24483;SDS011;12643;51.620;7.548;2023-02-01T13:46:29;23.58;;;5.45;;
24483;SDS011;12643;51.620;7.548;2023-02-01T13:49:04;23.58;;;5.38;;
24483;SDS011;12643;51.620;7.548;2023-02-01T13:51:35;17.67;;;4.30;;
24483;SDS011;12643;51.620;7.548;2023-02-01T13:54:21;27.25;;;4.90;;
24483;SDS011;12643;51.620;7.548;2023-02-01T13:56:57;21.58;;;4.22;;
24483;SDS011;12643;51.620;7.548;2023-02-01T13:59:36;18.33;;;3.95;;
24483;SDS011;12643;51.620;7.548;2023-02-01T14:05:04;31.90;;;5.55;;
24483;SDS011;12643;51.620;7.548;2023-02-01T14:07:36;17.27;;;4.45;;
24483;SDS011;12643;51.620;7.548;2023-02-01T14:10:47;28.38;;;5.20;;
24483;SDS011;12643;51.620;7.548;2023-02-01T14:13:22;16.10;;;4.25;;
24483;SDS011;12643;51.620;7.548;2023-02-01T14:19:00;20.65;;;4.70;;
24483;SDS011;12643;51.620;7.548;2023-02-01T14:21:30;26.77;;;4.57;;
24483;SDS011;12643;51.620;7.548;2023-02-01T14:24:04;20.85;;;4.15;;
24483;SDS011;12643;51.620;7.548;2023-02-01T14:26:44;19.08;;;5.18;;
24483;SDS011;12643;51.620;7.548;2023-02-01T14:29:21;25.52;;;4.25;;
24483;SDS011;12643;51.620;7.548;2023-02-01T14:31:54;31.05;;;6.65;;
24483;SDS011;12643;51.620;7.548;2023-02-01T14:34:31;20.65;;;5.28;;
24483;SDS011;12643;51.620;7.548;2023-02-01T14:37:09;24.05;;;6.15;;
24483;SDS011;12643;51.620;7.548;2023-02-01T14:42:27;19.15;;;5.25;;
24483;SDS011;12643;51.620;7.548;2023-02-01T14:51:11;25.08;;;6.22;;
24483;SDS011;12643;51.620;7.548;2023-02-01T14:53:42;19.23;;;5.10;;
24483;SDS011;12643;51.620;7.548;2023-02-01T14:56:14;22.50;;;5.22;;
24483;SDS011;12643;51.620;7.548;2023-02-01T14:58:47;23.65;;;5.22;;
24483;SDS011;12643;51.620;7.548;2023-02-01T15:01:21;24.88;;;5.07;;
24483;SDS011;12643;51.620;7.548;2023-02-01T15:06:27;26.00;;;5.70;;
24483;SDS011;12643;51.620;7.548;2023-02-01T15:08:59;23.67;;;4.32;;
24483;SDS011;12643;51.620;7.548;2023-02-01T15:11:36;20.83;;;4.72;;
24483;SDS011;12643;51.620;7.548;2023-02-01T15:14:22;28.77;;;5.93;;
24483;SDS011;12643;51.620;7.548;2023-02-01T15:16:51;24.88;;;4.90;;
24483;SDS011;12643;51.620;7.548;2023-02-01T15:19:20;35.60;;;4.90;;
24483;SDS011;12643;51.620;7.548;2023-02-01T15:21:52;30.35;;;6.40;;
24483;SDS011;12643;51.620;7.548;2023-02-01T15:24:22;31.77;;;5.80;;
24483;SDS011;12643;51.620;7.548;2023-02-01T15:26:53;22.98;;;5.55;;
24483;SDS011;12643;51.620;7.548;2023-02-01T15:31:53;23.27;;;5.30;;
24483;SDS011;12643;51.620;7.548;2023-02-01T15:34:21;22.05;;;5.60;;
24483;SDS011;12643;51.620;7.548;2023-02-01T15:36:49;18.17;;;3.88;;
24483;SDS011;12643;51.620;7.548;2023-02-01T15:39:20;15.60;;;4.50;;
24483;SDS011;12643;51.620;7.548;2023-02-01T15:41:54;27.42;;;5.32;;
24483;SDS011;12643;51.620;7.548;2023-02-01T15:44:30;20.83;;;5.10;;
24483;SDS011;12643;51.620;7.548;2023-02-01T15:47:05;18.58;;;5.20;;
24483;SDS011;12643;51.620;7.548;2023-02-01T15:49:41;24.35;;;5.07;;
24483;SDS011;12643;51.620;7.548;2023-02-01T15:52:24;28.92;;;5.72;;
24483;SDS011;12643;51.620;7.548;2023-02-01T15:54:54;21.58;;;4.95;;
24483;SDS011;12643;51.620;7.548;2023-02-01T15:57:26;21.08;;;5.50;;